createdAt,value
2023-03-31T21:18:31.076Z,12.46
2023-03-31T21:20:33.887Z,12.46
2023-03-31T21:22:35.470Z,12.45
2023-03-31T21:24:37.042Z,12.48
2023-03-31T21:26:38.901Z,12.44
2023-03-31T21:28:40.704Z,12.45
2023-03-31T21:30:49.164Z,12.49
2023-03-31T21:32:50.682Z,12.53
2023-03-31T21:34:52.153Z,12.54
2023-03-31T21:36:54.010Z,12.55
2023-03-31T21:38:56.007Z,12.53
2023-03-31T21:40:57.573Z,12.51
2023-03-31T21:42:59.046Z,12.47
2023-03-31T21:45:00.527Z,12.42
2023-03-31T21:47:02.147Z,12.37
2023-03-31T21:49:03.796Z,12.37
2023-03-31T21:51:05.724Z,12.36
2023-03-31T21:53:07.840Z,12.24
2023-03-31T21:55:09.474Z,12.11
2023-03-31T21:57:11.420Z,12.02
2023-03-31T21:59:12.980Z,12.09
2023-03-31T22:01:15.267Z,12.12
2023-03-31T22:05:24.293Z,12.20
2023-03-31T22:07:25.795Z,12.12
2023-03-31T22:09:27.697Z,12.03
2023-03-31T22:11:29.186Z,12.04
2023-03-31T22:13:30.682Z,12.09
2023-03-31T22:15:32.358Z,12.11
2023-03-31T22:17:34.240Z,12.08
2023-03-31T22:19:35.970Z,12.16
2023-03-31T22:21:37.449Z,12.13
2023-03-31T22:23:39.405Z,12.20
2023-03-31T22:25:40.888Z,12.18
2023-03-31T22:27:42.497Z,12.17
2023-03-31T22:29:44.070Z,12.23
2023-03-31T22:31:45.615Z,12.20
2023-03-31T22:33:48.543Z,12.12
2023-03-31T22:35:51.051Z,12.13
2023-03-31T22:37:52.653Z,12.19
2023-03-31T22:39:54.159Z,12.25
2023-03-31T22:41:55.696Z,12.30
2023-03-31T22:43:57.171Z,12.32
2023-03-31T22:46:02.440Z,12.22
2023-03-31T22:48:05.790Z,11.99
2023-03-31T22:50:07.464Z,11.94
2023-03-31T22:52:08.949Z,11.94
2023-03-31T22:54:16.888Z,12.03
2023-03-31T22:59:10.507Z,12.14
2023-03-31T23:01:14.708Z,12.14
2023-03-31T23:03:16.222Z,12.21
2023-03-31T23:05:17.834Z,12.27
2023-03-31T23:07:21.919Z,12.35
2023-03-31T23:09:23.891Z,12.37
2023-03-31T23:11:26.200Z,12.40
2023-03-31T23:13:28.020Z,12.36
2023-03-31T23:15:29.807Z,12.11
2023-03-31T23:17:49.943Z,12.07
2023-03-31T23:19:51.462Z,12.09
2023-03-31T23:21:52.919Z,12.14
2023-03-31T23:23:55.662Z,12.22
2023-03-31T23:26:00.245Z,12.22
2023-03-31T23:28:02.093Z,12.05
2023-03-31T23:30:03.956Z,12.10
2023-03-31T23:32:05.561Z,12.02
2023-03-31T23:34:07.380Z,11.98
2023-03-31T23:36:09.367Z,12.03
2023-03-31T23:38:11.019Z,12.05
2023-03-31T23:40:13.616Z,12.09
2023-03-31T23:42:19.832Z,12.09
2023-03-31T23:44:21.401Z,12.19
2023-03-31T23:46:24.435Z,12.20
2023-03-31T23:48:25.990Z,12.14
2023-03-31T23:50:28.460Z,12.14
2023-03-31T23:52:30.834Z,12.07
2023-03-31T23:54:32.811Z,11.96
2023-03-31T23:56:34.613Z,11.96
2023-03-31T23:58:36.448Z,11.93
